Terminal Aerodrome Forecast
Issued by NWS Cleveland, OH

Home | Current Version | Previous Version | Text Only | Print | Product List | Glossary On
Versions: 1 2 3 4 5 6 7 8 9 10 11 12 13
913
FTUS41 KCLE 192334
TAFCAK
TAF
KCAK 192334Z 2000/2024 22014KT P6SM SCT250
     FM201600 22012KT P6SM BKN015
     FM202300 22008KT P6SM OVC012=

USA.gov is the U.S. government's official web portal to all federal, state and local government web resources and services.